Herentals, Belgium
Current Conditions -  °F | °C
As of 3:25 AM on Monday 26 Jan 2015 (Local Time) from EBDT Reporting Station
Broken Clouds Broken Clouds  
Wind Chill:   Ceiling: 1100
Heat Index:   Visibility: 4mi
Dew Point:   Wind: 7mph
Humidity: 93%   Direction: 190°S
Pressure: 30.27"   Gusts: NA
Location:  51.18°N, 4.83°E
Report Text: EBDT 260225Z AUTO 19006KT 7000 FEW005/// SCT008/// BKN011/// 03/02 Q1025 GRN
Loading
Personal Weather Stations






























Interactive Weather Map New forecast layout! Learn more

10-Day Weather Forecast

Advertisements
Track Severe Weather on mobile